Time;durP1;ratioP1;P1;durP2;ratioP2;P2;SDS_P1;SDS_P2;PMS_P1;PMS_P2;Temp;Humidity;BMP_temperature;BMP_pressure;BME280_temperature;BME280_humidity;BME280_pressure;Samples;Min_cycle;Max_cycle;Signal;HPM_P1;HPM_P2
2021/06/16 00:01:33;;;;;;;;;21.50;20.50;;;;;24.93;49.60;101155.66;5050961;28;51233;-49
2021/06/16 00:03:58;;;;;;;;;22.00;22.00;;;;;24.92;50.38;101159.22;5035100;28;51080;-53
2021/06/16 00:06:24;;;;;;;;;22.00;21.25;;;;;24.90;50.16;101151.25;5042772;28;50946;-52
2021/06/16 00:08:49;;;;;;;;;23.50;22.50;;;;;24.87;50.52;101154.84;5040473;28;51966;-49
2021/06/16 00:11:15;;;;;;;;;22.00;21.00;;;;;24.85;50.18;101151.31;5051027;28;51077;-49
2021/06/16 00:13:40;;;;;;;;;16.75;16.75;;;;;24.84;49.65;101151.31;5039441;28;51509;-51
2021/06/16 00:16:06;;;;;;;;;22.25;21.25;;;;;24.81;49.77;101151.34;5052855;28;51273;-51
2021/06/16 00:18:31;;;;;;;;;23.25;23.00;;;;;24.80;50.25;101144.28;5053863;28;51987;-48
2021/06/16 00:20:57;;;;;;;;;24.75;24.25;;;;;24.76;50.43;101146.97;5053575;28;51115;-51
2021/06/16 00:23:22;;;;;;;;;21.00;21.00;;;;;24.74;50.35;101140.78;5036121;28;51264;-50
2021/06/16 00:25:48;;;;;;;;;18.75;18.25;;;;;24.70;50.44;101144.38;5034357;28;51380;-49
2021/06/16 00:28:14;;;;;;;;;23.00;21.00;;;;;24.68;50.36;101140.84;5033759;28;52052;-51
2021/06/16 00:30:41;;;;;;;;;21.00;21.00;;;;;24.66;50.99;101137.34;5033818;28;51037;-48
2021/06/16 00:33:07;;;;;;;;;22.50;21.00;;;;;24.63;50.24;101129.41;5040391;28;51176;-49
2021/06/16 00:35:32;;;;;;;;;21.50;21.50;;;;;24.60;50.13;101129.44;5034042;28;51018;-49
2021/06/16 00:37:59;;;;;;;;;24.00;23.75;;;;;24.59;50.83;101130.34;5033259;28;52160;-48
2021/06/16 00:40:26;;;;;;;;;19.75;19.75;;;;;24.58;50.97;101134.75;5033896;28;51065;-49
2021/06/16 00:42:52;;;;;;;;;21.50;20.25;;;;;24.56;50.57;101133.91;5033479;28;51126;-48
2021/06/16 00:45:18;;;;;;;;;21.50;21.50;;;;;24.54;51.32;101127.75;5033567;28;51345;-51
2021/06/16 00:47:44;;;;;;;;;20.00;20.00;;;;;24.54;50.86;101126.84;5033194;28;52742;-51
2021/06/16 00:50:12;;;;;;;;;20.25;19.75;;;;;24.51;50.94;101126.00;5050986;28;51449;-51
2021/06/16 00:52:38;;;;;;;;;21.25;20.00;;;;;24.50;50.61;101126.03;5050992;28;51139;-52
2021/06/16 00:55:05;;;;;;;;;19.25;18.75;;;;;24.48;50.29;101123.38;5052315;28;51497;-48
2021/06/16 00:57:32;;;;;;;;;23.00;21.00;;;;;24.45;51.12;101115.44;5033767;28;53314;-51
2021/06/16 01:00:11;;;;;;;;;22.00;20.00;;;;;24.43;51.32;101119.91;5048558;28;51108;-50
2021/06/16 01:03:01;;;;;;;;;24.00;23.00;;;;;24.41;51.29;101116.38;5053262;28;51102;-49
2021/06/16 01:05:32;;;;;;;;;20.75;20.00;;;;;24.39;50.69;101116.38;5049905;28;51097;-51
2021/06/16 01:08:01;;;;;;;;;21.00;20.75;;;;;24.37;51.10;101115.53;5041444;28;52249;-48
2021/06/16 01:10:29;;;;;;;;;22.75;22.00;;;;;24.36;51.16;101112.88;5033066;28;51074;-51
2021/06/16 01:13:18;;;;;;;;;20.50;19.75;;;;;24.35;50.83;101116.44;5033323;28;50985;-49
2021/06/16 01:15:54;;;;;;;;;23.50;22.75;;;;;24.32;51.40;101100.53;5040126;28;51170;-51
2021/06/16 01:18:21;;;;;;;;;21.00;21.00;;;;;24.30;51.48;101097.03;5050282;28;51988;-47
2021/06/16 01:20:49;;;;;;;;;20.50;20.50;;;;;24.27;50.81;101097.06;5045913;28;51038;-50
2021/06/16 01:23:42;;;;;;;;;20.25;20.25;;;;;24.26;51.03;101101.50;5066269;28;51278;-48
2021/06/16 01:26:18;;;;;;;;;22.75;21.75;;;;;24.26;51.46;101090.88;5038602;28;51167;-48
2021/06/16 01:28:44;;;;;;;;;22.00;21.50;;;;;24.24;51.32;101098.88;5032504;28;51134;-48
2021/06/16 01:31:12;;;;;;;;;19.75;19.00;;;;;24.24;51.62;101090.91;5033096;28;51142;-50
2021/06/16 01:33:38;;;;;;;;;22.00;21.00;;;;;24.24;51.32;101090.00;5032982;28;51055;-48
2021/06/16 01:36:05;;;;;;;;;20.50;20.50;;;;;24.21;51.17;101085.63;5041067;28;51520;-50
2021/06/16 01:38:31;;;;;;;;;23.00;22.00;;;;;24.20;51.27;101089.16;5048641;28;51344;-51
2021/06/16 01:41:00;;;;;;;;;21.50;21.50;;;;;24.19;51.61;101092.72;5051130;28;50968;-47
2021/06/16 01:43:26;;;;;;;;;20.25;19.50;;;;;24.17;51.24;101081.22;5052709;28;51269;-48
2021/06/16 01:45:55;;;;;;;;;20.75;20.75;;;;;24.15;51.66;101085.69;5051474;28;51070;-48
2021/06/16 01:48:21;;;;;;;;;22.75;21.75;;;;;24.14;51.71;101089.25;5052364;28;52002;-48
2021/06/16 01:50:52;;;;;;;;;20.75;20.50;;;;;24.14;51.60;101085.69;5051720;28;51083;-48
2021/06/16 01:53:19;;;;;;;;;20.00;20.00;;;;;24.10;51.45;101075.09;5051322;28;51114;-49
2021/06/16 01:55:46;;;;;;;;;21.50;20.50;;;;;24.10;51.14;101079.56;5051646;28;51107;-47
2021/06/16 01:58:13;;;;;;;;;20.00;19.00;;;;;24.08;52.11;101078.63;5049462;28;51982;-47
2021/06/16 02:00:41;;;;;;;;;17.75;17.75;;;;;24.08;52.01;101075.97;5033514;28;50917;-49
2021/06/16 02:03:07;;;;;;;;;21.50;21.25;;;;;24.07;51.88;101072.47;5031051;28;51054;-48
2021/06/16 02:05:33;;;;;;;;;24.00;23.25;;;;;24.04;52.01;101075.16;5032453;28;51339;-50
2021/06/16 02:08:11;;;;;;;;;22.50;22.00;;;;;24.02;51.71;101066.31;5032312;28;51262;-48
2021/06/16 02:10:41;;;;;;;;;21.25;20.50;;;;;24.00;51.96;101060.16;5032633;28;51159;-51
2021/06/16 02:13:09;;;;;;;;;21.75;19.75;;;;;23.98;52.24;101065.47;5032198;28;50971;-49
2021/06/16 02:15:38;;;;;;;;;23.50;23.00;;;;;23.96;51.65;101061.97;5050310;28;51086;-50
2021/06/16 02:18:07;;;;;;;;;24.25;23.00;;;;;23.96;51.75;101059.31;5047832;28;51072;-50
2021/06/16 02:20:32;;;;;;;;;23.25;22.75;;;;;23.94;52.28;101057.56;5041438;28;51079;-49
2021/06/16 02:22:58;;;;;;;;;21.25;20.25;;;;;23.91;51.76;101057.59;5052220;28;51265;-48
2021/06/16 02:25:24;;;;;;;;;23.00;23.00;;;;;23.88;51.95;101053.19;5052740;28;51106;-50
2021/06/16 02:27:49;;;;;;;;;24.25;23.00;;;;;23.85;52.40;101055.88;5038781;28;52073;-51
2021/06/16 02:30:17;;;;;;;;;21.75;21.00;;;;;23.82;52.48;101054.13;5036290;28;51196;-50
2021/06/16 02:32:42;;;;;;;;;24.00;24.00;;;;;23.80;52.20;101047.06;5032107;28;50947;-51
2021/06/16 02:35:08;;;;;;;;;19.50;19.50;;;;;23.78;52.31;101048.88;5032258;28;51344;-51
2021/06/16 02:37:38;;;;;;;;;22.25;22.25;;;;;23.77;53.32;101044.44;5022265;28;51230;-52
2021/06/16 02:40:12;;;;;;;;;22.75;21.75;;;;;23.75;53.45;101043.59;5038361;28;51122;-50
2021/06/16 02:42:39;;;;;;;;;21.75;20.00;;;;;23.73;53.17;101044.50;5049286;28;51066;-52
2021/06/16 02:45:06;;;;;;;;;19.75;19.50;;;;;23.69;52.86;101037.44;5051660;28;51176;-50
2021/06/16 02:47:34;;;;;;;;;20.25;20.25;;;;;23.68;53.14;101030.41;5050163;28;51984;-49
2021/06/16 02:50:01;;;;;;;;;24.25;23.75;;;;;23.66;52.85;101026.88;5050685;28;51028;-47
2021/06/16 02:52:28;;;;;;;;;22.75;21.50;;;;;23.65;52.80;101026.88;5051625;28;51177;-51
2021/06/16 02:55:02;;;;;;;;;26.00;24.00;;;;;23.60;53.11;101029.59;5051505;28;51241;-51
2021/06/16 02:57:30;;;;;;;;;23.50;23.00;;;;;23.56;53.14;101022.53;5051420;28;52498;-50
2021/06/16 02:59:56;;;;;;;;;26.50;26.00;;;;;23.55;53.28;101034.91;5050456;28;51224;-51
2021/06/16 03:02:24;;;;;;;;;23.50;23.00;;;;;23.53;53.62;101031.41;5037644;28;51230;-51
2021/06/16 03:04:51;;;;;;;;;22.25;21.00;;;;;23.52;53.56;101023.47;5037985;28;51291;-49
2021/06/16 03:07:19;;;;;;;;;22.75;21.50;;;;;23.49;53.58;101029.66;5031218;28;50987;-50
2021/06/16 03:09:46;;;;;;;;;21.50;21.25;;;;;23.47;53.56;101031.47;5031621;28;51099;-51
2021/06/16 03:12:14;;;;;;;;;24.00;21.50;;;;;23.44;54.07;101026.19;5031592;28;51007;-50
2021/06/16 03:14:40;;;;;;;;;28.25;26.50;;;;;23.42;54.43;101031.47;5032569;28;51219;-52
2021/06/16 03:17:07;;;;;;;;;26.25;25.50;;;;;23.41;54.59;101027.09;5037881;28;51987;-50
2021/06/16 03:19:34;;;;;;;;;24.50;24.25;;;;;23.41;54.66;101021.78;5034801;28;50879;-47
2021/06/16 03:22:02;;;;;;;;;25.50;25.50;;;;;23.42;54.50;101027.97;5042819;28;51313;-50
2021/06/16 03:24:28;;;;;;;;;24.00;23.00;;;;;23.41;54.48;101029.72;5025049;28;51351;-48
2021/06/16 03:26:54;;;;;;;;;24.25;23.25;;;;;23.41;54.56;101026.19;5046202;28;52930;-47
2021/06/16 03:29:20;;;;;;;;;22.75;22.50;;;;;23.38;54.93;101021.78;5054541;28;51053;-48
2021/06/16 03:31:47;;;;;;;;;28.75;27.00;;;;;23.38;54.45;101028.88;5055194;28;51086;-49
2021/06/16 03:34:13;;;;;;;;;25.25;25.25;;;;;23.36;54.33;101022.69;5053340;28;51071;-49
2021/06/16 03:36:42;;;;;;;;;24.00;24.00;;;;;23.34;54.55;101020.06;5037196;28;51333;-48
2021/06/16 03:39:08;;;;;;;;;21.50;21.25;;;;;23.32;54.92;101028.00;5054116;28;51200;-50
2021/06/16 03:41:38;;;;;;;;;24.25;24.25;;;;;23.32;55.31;101024.47;5048706;28;50981;-47
2021/06/16 03:44:05;;;;;;;;;17.25;17.25;;;;;23.31;54.78;101025.38;5038603;28;51264;-50
2021/06/16 03:46:33;;;;;;;;;25.75;24.75;;;;;23.28;55.09;101026.28;5034331;28;53169;-49
2021/06/16 03:49:00;;;;;;;;;25.00;24.25;;;;;23.28;55.12;101028.03;5034230;28;51240;-49
2021/06/16 03:51:27;;;;;;;;;25.00;25.00;;;;;23.27;55.07;101027.13;5034716;28;51140;-50
2021/06/16 03:53:53;;;;;;;;;23.00;23.00;;;;;23.26;54.87;101028.03;5049861;28;51242;-51
2021/06/16 03:56:21;;;;;;;;;25.00;24.25;;;;;23.24;54.82;101023.63;5053751;28;51073;-50
2021/06/16 03:58:47;;;;;;;;;26.00;26.00;;;;;23.23;55.12;101029.84;5053979;28;50993;-50
2021/06/16 04:01:13;;;;;;;;;23.25;22.25;;;;;23.22;55.59;101023.66;5054596;28;50934;-49
2021/06/16 04:03:40;;;;;;;;;22.25;22.25;;;;;23.24;55.44;101026.28;5048453;28;51249;-51
2021/06/16 04:06:07;;;;;;;;;22.75;22.25;;;;;23.25;55.36;101022.75;5034147;28;51101;-51
2021/06/16 04:08:35;;;;;;;;;23.50;23.50;;;;;23.26;55.68;101011.28;5033814;28;51035;-48
2021/06/16 04:11:01;;;;;;;;;25.00;24.25;;;;;23.26;55.52;101014.78;5043235;28;51016;-49
2021/06/16 04:13:26;;;;;;;;;25.75;23.75;;;;;23.28;55.02;101017.44;5050983;28;51350;-50
2021/06/16 04:15:51;;;;;;;;;24.50;24.50;;;;;23.30;55.60;101018.28;5033510;28;53385;-48
2021/06/16 04:18:17;;;;;;;;;23.75;23.75;;;;;23.30;55.81;101020.94;5033905;28;50906;-50
2021/06/16 04:20:42;;;;;;;;;26.50;24.50;;;;;23.30;55.46;101018.28;5034070;28;51131;-48
2021/06/16 04:23:08;;;;;;;;;24.50;24.50;;;;;23.32;55.66;101027.13;5034208;28;50953;-49
2021/06/16 04:25:34;;;;;;;;;23.75;23.25;;;;;23.34;55.49;101025.34;5039924;28;51224;-49
2021/06/16 04:27:59;;;;;;;;;25.25;24.75;;;;;23.36;55.41;101025.34;5048091;28;51169;-49
2021/06/16 04:30:25;;;;;;;;;24.00;24.00;;;;;23.39;55.52;101025.34;5058738;28;51208;-48
2021/06/16 04:32:51;;;;;;;;;20.50;20.00;;;;;23.40;55.30;101020.03;5053912;28;51228;-48
2021/06/16 04:35:18;;;;;;;;;26.50;23.50;;;;;23.42;55.21;101022.69;5053519;28;51362;-48
2021/06/16 04:37:43;;;;;;;;;24.50;23.25;;;;;23.43;55.49;101014.69;5051215;28;50977;-51
2021/06/16 04:40:09;;;;;;;;;24.50;23.50;;;;;23.47;55.40;101015.56;5053409;28;50939;-50
2021/06/16 04:42:35;;;;;;;;;25.00;24.25;;;;;23.53;55.73;101011.97;5053953;28;51075;-51
2021/06/16 04:45:01;;;;;;;;;25.75;24.75;;;;;23.54;55.62;101008.44;5051604;28;51114;-51
2021/06/16 04:47:27;;;;;;;;;24.25;24.00;;;;;23.55;56.01;101003.09;5049006;28;51178;-50
2021/06/16 04:49:52;;;;;;;;;25.25;24.75;;;;;23.59;55.73;101001.31;5033476;28;50980;-48
2021/06/16 04:52:18;;;;;;;;;29.50;27.50;;;;;23.64;55.28;100996.84;5052038;28;51005;-50
2021/06/16 04:54:43;;;;;;;;;25.25;25.00;;;;;23.72;55.37;100999.44;5053005;28;51959;-48
2021/06/16 04:57:09;;;;;;;;;27.00;26.00;;;;;23.78;55.11;100996.72;5053207;28;50924;-51
2021/06/16 04:59:35;;;;;;;;;25.00;24.25;;;;;23.83;55.20;100991.38;5051763;28;50859;-50
2021/06/16 05:02:02;;;;;;;;;26.50;26.50;;;;;23.93;54.63;100990.38;5038990;28;51482;-49
2021/06/16 05:04:28;;;;;;;;;26.25;25.75;;;;;24.38;54.92;100987.25;5045688;28;52708;-51
2021/06/16 05:06:54;;;;;;;;;22.75;22.50;;;;;25.06;53.96;100984.59;5043164;28;51124;-50
2021/06/16 05:09:20;;;;;;;;;31.00;29.75;;;;;25.76;52.50;100986.09;5034825;28;51143;-50
2021/06/16 05:11:46;;;;;;;;;23.25;22.25;;;;;26.46;50.75;100984.75;5041092;28;51030;-48
2021/06/16 05:14:12;;;;;;;;;23.00;21.50;;;;;27.08;49.49;100979.84;5035661;28;51964;-48
2021/06/16 05:16:38;;;;;;;;;25.50;25.50;;;;;27.63;48.13;100975.84;5040585;28;51059;-49
2021/06/16 05:19:04;;;;;;;;;24.75;23.75;;;;;28.21;46.48;100979.59;5044356;28;51050;-51
2021/06/16 05:21:30;;;;;;;;;27.00;26.25;;;;;28.65;45.91;100985.41;5062204;28;51307;-49
2021/06/16 05:23:56;;;;;;;;;26.75;26.50;;;;;29.07;45.02;100980.56;5038276;28;50833;-52
2021/06/16 05:26:22;;;;;;;;;29.75;29.00;;;;;29.33;42.00;100984.19;5037656;28;51083;-47
2021/06/16 05:28:47;;;;;;;;;32.50;29.00;;;;;29.52;42.45;100987.13;5040184;28;50922;-48
2021/06/16 05:31:13;;;;;;;;;30.25;29.00;;;;;29.81;42.15;100982.53;5052701;28;50888;-48
2021/06/16 05:33:38;;;;;;;;;28.00;26.75;;;;;30.22;41.08;100979.31;5052545;28;52093;-48
2021/06/16 05:36:05;;;;;;;;;29.50;28.25;;;;;30.60;40.15;100975.19;5050740;28;50989;-51
2021/06/16 05:38:31;;;;;;;;;27.25;26.75;;;;;31.01;40.43;100979.84;5030603;28;53450;-48
2021/06/16 05:40:57;;;;;;;;;27.25;26.00;;;;;31.60;39.93;100981.88;5032894;28;51202;-48
2021/06/16 05:43:22;;;;;;;;;27.50;27.00;;;;;32.17;38.56;100987.41;5031781;28;51859;-50
2021/06/16 05:45:48;;;;;;;;;28.50;27.50;;;;;32.64;36.99;100981.69;5032013;28;51065;-52
2021/06/16 05:48:13;;;;;;;;;24.00;23.00;;;;;32.88;36.80;100974.25;5035527;28;50938;-49
2021/06/16 05:50:39;;;;;;;;;25.00;24.75;;;;;33.11;36.15;100978.53;5037418;28;51110;-51
2021/06/16 05:53:04;;;;;;;;;25.25;24.50;;;;;33.60;35.99;100985.03;5052095;28;52074;-52
2021/06/16 05:55:30;;;;;;;;;26.25;24.75;;;;;34.14;33.26;100978.63;5048093;28;50976;-49
2021/06/16 05:57:55;;;;;;;;;24.25;24.25;;;;;34.40;33.76;100984.38;5040733;28;51030;-51
2021/06/16 06:00:21;;;;;;;;;24.75;24.50;;;;;34.62;32.47;100980.53;5052121;28;51353;-47
2021/06/16 06:02:47;;;;;;;;;27.00;25.50;;;;;34.76;32.71;100979.72;5052182;28;51039;-50
2021/06/16 06:05:13;;;;;;;;;24.25;23.75;;;;;34.73;32.22;100974.50;5051980;28;50948;-49
2021/06/16 06:07:39;;;;;;;;;25.00;24.75;;;;;35.03;31.24;100980.91;5051806;28;51308;-50
2021/06/16 06:10:05;;;;;;;;;25.50;24.75;;;;;35.57;32.14;100982.22;5048045;28;51289;-52
2021/06/16 06:12:30;;;;;;;;;25.75;25.75;;;;;36.33;31.35;100982.09;5038223;28;51354;-54
2021/06/16 06:14:56;;;;;;;;;25.25;25.25;;;;;36.98;30.82;100980.56;5051632;28;51136;-53
2021/06/16 06:17:22;;;;;;;;;26.25;26.25;;;;;37.62;30.03;100984.44;5052001;28;51171;-49
2021/06/16 06:19:47;;;;;;;;;29.00;28.25;;;;;38.00;28.16;100974.53;5051736;28;51073;-52
2021/06/16 06:22:13;;;;;;;;;27.25;25.00;;;;;38.24;29.11;100976.47;5051379;28;51942;-52
2021/06/16 06:24:38;;;;;;;;;20.00;19.50;;;;;38.63;28.20;100979.06;5051033;28;51194;-52
2021/06/16 06:27:03;;;;;;;;;27.00;26.75;;;;;39.29;28.40;100972.34;5051623;28;51086;-52
2021/06/16 06:29:29;;;;;;;;;25.50;25.50;;;;;39.83;27.14;100980.84;5035921;28;51029;-52
2021/06/16 06:31:55;;;;;;;;;25.75;25.25;;;;;40.41;26.64;100982.59;5034113;28;51398;-49
2021/06/16 06:34:23;;;;;;;;;26.75;26.00;;;;;40.95;26.18;100981.81;5038481;28;51347;-49
2021/06/16 06:36:48;;;;;;;;;32.25;30.00;;;;;41.47;25.15;100981.94;5034726;28;51248;-50
2021/06/16 06:39:15;;;;;;;;;26.25;26.25;;;;;41.88;24.29;100983.88;5030982;28;51448;-52
2021/06/16 06:41:40;;;;;;;;;22.50;21.75;;;;;42.11;24.47;100981.81;5038258;28;52280;-52
2021/06/16 06:44:06;;;;;;;;;21.25;20.50;;;;;42.50;23.49;100980.19;5047663;28;51299;-53
2021/06/16 06:46:34;;;;;;;;;21.50;21.50;;;;;42.78;23.40;100974.09;5050650;28;51023;-54
2021/06/16 06:48:59;;;;;;;;;21.50;21.50;;;;;42.88;22.33;100972.22;5050319;28;51491;-49
2021/06/16 06:51:24;;;;;;;;;23.25;22.25;;;;;42.93;22.26;100975.38;5036666;28;53094;-51
2021/06/16 06:53:50;;;;;;;;;25.00;25.00;;;;;43.28;21.49;100970.31;5054206;28;50960;-51
2021/06/16 06:56:15;;;;;;;;;23.50;22.50;;;;;43.47;21.67;100969.41;5054678;28;51108;-52
2021/06/16 06:58:41;;;;;;;;;23.75;23.75;;;;;43.88;21.64;100971.03;5054754;28;51038;-48
2021/06/16 07:01:06;;;;;;;;;23.50;21.50;;;;;44.49;21.01;100968.66;5053930;28;51255;-53
2021/06/16 07:03:33;;;;;;;;;23.25;23.25;;;;;44.24;19.77;100970.25;5053065;28;51099;-52
2021/06/16 07:05:58;;;;;;;;;20.25;19.00;;;;;44.14;20.03;100967.59;5051659;28;51454;-49
2021/06/16 07:08:23;;;;;;;;;18.75;18.25;;;;;44.66;20.26;100957.88;5054572;28;50968;-52
2021/06/16 07:10:49;;;;;;;;;22.00;22.00;;;;;44.97;20.39;100950.13;5047600;28;52128;-52
2021/06/16 07:13:15;;;;;;;;;26.50;22.00;;;;;45.41;20.08;100967.56;5035939;28;51064;-52
2021/06/16 07:15:40;;;;;;;;;19.50;19.00;;;;;45.97;19.30;100958.13;5051954;28;51252;-50
2021/06/16 07:18:06;;;;;;;;;18.75;18.50;;;;;46.61;19.14;100954.00;5053296;28;51012;-50
2021/06/16 07:20:31;;;;;;;;;20.25;18.00;;;;;46.94;18.15;100956.78;5048070;28;51178;-52
2021/06/16 07:22:57;;;;;;;;;20.50;20.50;;;;;47.43;17.48;100958.63;5042876;28;51075;-53
2021/06/16 07:25:26;;;;;;;;;19.50;19.00;;;;;47.37;17.27;100962.06;5040528;28;51079;-52
2021/06/16 07:27:51;;;;;;;;;19.75;18.50;;;;;47.26;16.96;100957.78;5036574;28;50997;-53
2021/06/16 07:30:18;;;;;;;;;18.75;18.75;;;;;47.69;17.06;100954.75;5051664;28;51027;-51
2021/06/16 07:32:44;;;;;;;;;18.00;18.00;;;;;48.44;16.69;100957.16;5054381;28;51223;-53
2021/06/16 07:35:12;;;;;;;;;19.25;18.50;;;;;48.92;16.75;100956.06;5044439;28;51035;-50
2021/06/16 07:37:37;;;;;;;;;19.50;19.50;;;;;49.34;16.51;100961.22;5040599;28;51256;-52
2021/06/16 07:40:08;;;;;;;;;17.00;17.00;;;;;49.78;15.62;100949.34;5046960;28;52621;-51
2021/06/16 07:42:35;;;;;;;;;15.75;15.50;;;;;50.11;15.80;100949.94;5053976;28;51180;-52
2021/06/16 07:45:01;;;;;;;;;17.25;17.25;;;;;50.29;14.84;100947.56;5042716;28;51122;-53
2021/06/16 07:47:34;;;;;;;;;18.50;17.75;;;;;50.14;14.57;100944.91;5033393;28;51401;-58
2021/06/16 07:50:00;;;;;;;;;21.25;19.50;;;;;50.03;15.04;100949.00;5041320;28;51160;-51
2021/06/16 07:52:28;;;;;;;;;17.25;17.25;;;;;50.12;12.68;100935.09;5038125;28;51225;-52
2021/06/16 07:54:54;;;;;;;;;17.50;17.50;;;;;49.86;15.20;100937.34;5038737;28;51165;-52
2021/06/16 07:57:20;;;;;;;;;16.00;15.75;;;;;50.20;14.63;100934.94;5046807;28;51237;-50
2021/06/16 07:59:46;;;;;;;;;17.00;16.75;;;;;50.75;14.36;100928.91;5043290;28;51754;-49
2021/06/16 08:02:11;;;;;;;;;17.25;17.25;;;;;51.58;13.78;100924.59;5050407;28;51232;-51
2021/06/16 08:04:40;;;;;;;;;18.00;17.25;;;;;52.31;12.90;100927.81;5045471;28;50973;-51
2021/06/16 08:07:10;;;;;;;;;13.25;13.00;;;;;52.74;12.62;100922.94;5037165;28;51116;-53
2021/06/16 08:09:37;;;;;;;;;15.50;14.25;;;;;52.85;12.36;100925.03;5044733;28;51043;-48
2021/06/16 08:12:07;;;;;;;;;15.75;15.00;;;;;53.15;12.19;100919.06;5033462;28;51330;-50
2021/06/16 08:14:33;;;;;;;;;15.75;15.75;;;;;53.23;12.07;100920.75;5031515;28;51037;-50
2021/06/16 08:17:01;;;;;;;;;15.25;14.75;;;;;53.48;11.86;100919.19;5034267;28;51231;-51
2021/06/16 08:19:26;;;;;;;;;17.00;16.75;;;;;53.74;11.28;100921.00;5025213;28;51129;-49
2021/06/16 08:21:52;;;;;;;;;36.00;32.25;;;;;53.95;11.49;100913.41;5053285;28;51111;-50
2021/06/16 08:24:17;;;;;;;;;17.25;16.75;;;;;54.29;11.27;100916.00;5038034;28;50954;-54
2021/06/16 08:26:43;;;;;;;;;14.50;14.50;;;;;54.89;10.76;100916.56;5041670;28;51052;-50
2021/06/16 08:29:09;;;;;;;;;15.50;15.50;;;;;55.25;11.02;100905.69;5052036;28;51078;-49
2021/06/16 08:31:34;;;;;;;;;16.50;15.75;;;;;55.35;10.98;100912.41;5033289;28;51060;-50
2021/06/16 08:34:00;;;;;;;;;13.50;13.50;;;;;55.46;10.41;100902.44;5043163;28;51449;-48
2021/06/16 08:36:25;;;;;;;;;14.50;14.25;;;;;55.99;9.63;100900.03;5046421;28;51364;-48
2021/06/16 08:38:51;;;;;;;;;13.50;13.50;;;;;55.58;9.40;100898.91;5041182;28;51422;-52
2021/06/16 08:41:17;;;;;;;;;13.75;13.75;;;;;55.16;8.82;100897.66;5032695;28;50959;-52
2021/06/16 08:43:45;;;;;;;;;12.50;12.50;;;;;55.34;10.02;100898.72;5032665;28;51053;-51
2021/06/16 08:46:13;;;;;;;;;11.25;11.25;;;;;55.85;9.76;100893.78;5040440;28;51044;-51
2021/06/16 08:48:40;;;;;;;;;10.50;10.25;;;;;55.88;9.39;100887.78;5035270;28;51888;-52
2021/06/16 08:51:08;;;;;;;;;11.50;11.50;;;;;55.74;9.40;100895.44;5043891;28;51104;-51
2021/06/16 08:53:34;;;;;;;;;12.00;12.00;;;;;56.31;9.42;100889.66;5052147;28;51216;-52
2021/06/16 08:56:00;;;;;;;;;13.00;12.25;;;;;56.69;9.10;100891.13;5043633;28;51158;-52
2021/06/16 08:58:26;;;;;;;;;12.00;12.00;;;;;56.61;8.87;100883.19;5050287;28;51918;-51
2021/06/16 09:00:52;;;;;;;;;13.50;13.25;;;;;56.46;9.16;100887.28;5052536;28;50969;-52
2021/06/16 09:03:18;;;;;;;;;14.00;13.50;;;;;57.05;9.14;100889.19;5052708;28;51145;-50
2021/06/16 09:05:43;;;;;;;;;12.50;11.75;;;;;57.23;7.90;100889.28;5053054;28;51391;-54
2021/06/16 09:08:17;;;;;;;;;10.50;10.50;;;;;57.36;9.08;100885.38;5049782;28;52901;-50
2021/06/16 09:10:48;;;;;;;;;14.00;14.00;;;;;57.92;7.56;100885.59;5040767;28;50997;-52
2021/06/16 09:13:25;;;;;;;;;14.50;14.00;;;;;57.43;8.79;100883.25;5033887;28;51243;-52
2021/06/16 09:15:50;;;;;;;;;16.25;15.25;;;;;57.90;8.08;100881.38;5036331;28;51363;-52
2021/06/16 09:18:16;;;;;;;;;13.00;12.50;;;;;58.54;8.42;100879.34;5051580;28;52255;-54
2021/06/16 09:20:47;;;;;;;;;11.00;11.00;;;;;58.89;7.22;100874.53;5051525;28;50965;-50
2021/06/16 09:23:14;;;;;;;;;12.25;12.25;;;;;59.15;7.60;100870.13;5031641;28;51095;-52
2021/06/16 09:25:41;;;;;;;;;12.25;11.25;;;;;59.06;6.97;100869.75;5039427;28;51319;-51
2021/06/16 09:28:06;;;;;;;;;12.50;12.50;;;;;58.92;7.50;100863.69;5037267;28;52375;-51
2021/06/16 09:30:35;;;;;;;;;12.75;12.50;;;;;57.87;7.74;100860.38;5048025;28;51049;-51
2021/06/16 09:33:10;;;;;;;;;12.75;12.00;;;;;57.62;7.13;100852.38;5044238;28;51134;-52
2021/06/16 09:35:39;;;;;;;;;11.00;11.00;;;;;57.78;7.41;100857.16;5031452;28;51261;-52
2021/06/16 09:38:13;;;;;;;;;11.25;11.25;;;;;57.87;7.78;100854.78;5036535;28;52251;-53
2021/06/16 09:40:44;;;;;;;;;9.50;9.25;;;;;58.06;6.91;100846.16;5050082;28;51120;-50
2021/06/16 09:43:14;;;;;;;;;10.75;10.00;;;;;58.06;7.76;100852.59;5050996;28;51066;-50
2021/06/16 09:45:43;;;;;;;;;14.00;13.75;;;;;58.85;7.90;100841.50;5052064;28;51393;-51
2021/06/16 09:48:18;;;;;;;;;13.00;12.25;;;;;59.68;6.98;100851.94;5049964;28;51018;-53
2021/06/16 09:50:43;;;;;;;;;11.50;11.50;;;;;59.19;6.31;100850.88;5051405;28;51090;-52
2021/06/16 09:53:11;;;;;;;;;13.00;13.00;;;;;58.89;7.23;100844.63;5051389;28;50936;-50
2021/06/16 09:55:37;;;;;;;;;14.75;14.50;;;;;59.10;6.16;100844.88;5051602;28;52117;-52
2021/06/16 09:58:08;;;;;;;;;12.00;11.50;;;;;59.50;7.33;100842.81;5046582;28;52020;-52
2021/06/16 10:00:34;;;;;;;;;10.00;10.00;;;;;59.90;6.80;100854.69;5034993;28;51112;-50
2021/06/16 10:03:10;;;;;;;;;12.00;12.00;;;;;60.32;6.08;100850.25;5032563;28;50968;-53
2021/06/16 10:06:04;;;;;;;;;12.50;12.50;;;;;61.07;6.84;100848.38;5031848;28;50976;-52
2021/06/16 10:08:39;;;;;;;;;11.75;11.50;;;;;61.80;5.90;100856.97;5042980;28;51277;-52
2021/06/16 10:11:07;;;;;;;;;12.00;12.00;;;;;61.64;5.33;100854.13;5032447;28;51094;-52
2021/06/16 10:13:34;;;;;;;;;9.00;9.00;;;;;60.61;6.02;100852.66;5039731;28;51203;-52
2021/06/16 10:16:01;;;;;;;;;11.50;11.50;;;;;60.12;6.40;100846.19;5031323;28;51336;-49
2021/06/16 10:18:28;;;;;;;;;13.50;12.25;;;;;59.62;6.41;100834.25;5046090;28;52167;-53
2021/06/16 10:20:55;;;;;;;;;11.50;10.00;;;;;60.31;6.38;100837.34;5035968;28;51081;-54
2021/06/16 10:23:21;;;;;;;;;11.25;11.25;;;;;60.53;5.60;100833.56;5043606;28;52413;-53
2021/06/16 10:25:48;;;;;;;;;10.25;10.25;;;;;59.88;5.47;100824.13;5046162;28;51142;-51
2021/06/16 10:28:20;;;;;;;;;10.75;10.75;;;;;59.43;5.62;100817.84;5040046;28;51879;-50
2021/06/16 10:30:53;;;;;;;;;13.50;12.00;;;;;58.93;5.82;100830.94;5042631;28;51649;-53
2021/06/16 10:33:39;;;;;;;;;11.75;11.00;;;;;59.50;6.00;100820.44;5037668;28;51399;-53
2021/06/16 10:36:18;;;;;;;;;12.50;11.50;;;;;59.52;6.07;100809.81;5043415;28;51286;-53
2021/06/16 10:39:07;;;;;;;;;12.25;12.00;;;;;59.40;6.06;100798.78;5043373;28;51249;-51
2021/06/16 10:41:45;;;;;;;;;11.00;11.00;;;;;59.24;6.42;100794.97;5032619;28;51970;-53
2021/06/16 10:44:10;;;;;;;;;15.00;14.25;;;;;58.53;6.64;100794.66;5028006;28;51135;-52
2021/06/16 10:46:49;;;;;;;;;14.25;14.00;;;;;57.53;7.05;100796.97;5030746;28;51305;-52
2021/06/16 10:49:47;;;;;;;;;14.25;14.25;;;;;56.12;6.87;100782.00;5045880;28;51905;-51
2021/06/16 10:52:18;;;;;;;;;10.75;10.75;;;;;54.42;7.47;100785.31;5029567;28;50866;-54
2021/06/16 10:55:16;;;;;;;;;15.00;15.00;;;;;52.99;8.87;100775.38;5031520;28;51191;-53
2021/06/16 10:58:16;;;;;;;;;15.25;14.75;;;;;52.15;9.64;100775.91;5016347;28;51137;-52
2021/06/16 11:00:41;;;;;;;;;14.75;14.75;;;;;51.42;10.00;100761.75;5045984;28;51237;-52
2021/06/16 11:03:07;;;;;;;;;13.50;13.50;;;;;50.26;10.15;100764.91;5051048;28;51225;-54
2021/06/16 11:05:40;;;;;;;;;12.75;12.25;;;;;49.77;11.06;100761.94;5045510;28;51276;-53
2021/06/16 11:08:07;;;;;;;;;12.25;11.75;;;;;49.02;11.80;100751.06;5047247;28;51253;-52
2021/06/16 11:10:53;;;;;;;;;16.00;15.00;;;;;48.23;11.70;100759.66;5049779;28;53349;-52
2021/06/16 11:13:38;;;;;;;;;13.00;13.00;;;;;47.12;11.59;100760.66;5050182;28;50948;-53
2021/06/16 11:16:48;;;;;;;;;11.25;11.25;;;;;45.93;12.95;100753.78;5049825;28;51086;-54